sensor_id;sensor_type;location;lat;lon;timestamp;temperature;humidity
29729;DHT22;20055;51.498;11.960;2023-07-13T00:01:30;19.70;99.90
29729;DHT22;20055;51.498;11.960;2023-07-13T00:03:57;19.70;99.90
29729;DHT22;20055;51.498;11.960;2023-07-13T00:06:24;19.60;99.90
29729;DHT22;20055;51.498;11.960;2023-07-13T00:08:50;19.70;99.90
29729;DHT22;20055;51.498;11.960;2023-07-13T00:11:17;19.60;99.90
29729;DHT22;20055;51.498;11.960;2023-07-13T00:13:43;19.60;99.90
29729;DHT22;20055;51.498;11.960;2023-07-13T00:16:11;19.60;99.90
29729;DHT22;20055;51.498;11.960;2023-07-13T00:18:38;19.50;99.90
29729;DHT22;20055;51.498;11.960;2023-07-13T00:21:04;19.50;99.90
29729;DHT22;20055;51.498;11.960;2023-07-13T00:23:35;19.40;99.90
29729;DHT22;20055;51.498;11.960;2023-07-13T00:26:04;19.30;99.90
29729;DHT22;20055;51.498;11.960;2023-07-13T00:28:31;19.30;99.90
29729;DHT22;20055;51.498;11.960;2023-07-13T00:30:58;19.10;99.90
29729;DHT22;20055;51.498;11.960;2023-07-13T00:33:24;19.00;99.90
29729;DHT22;20055;51.498;11.960;2023-07-13T00:35:50;18.90;99.90
29729;DHT22;20055;51.498;11.960;2023-07-13T00:38:17;18.80;99.90
29729;DHT22;20055;51.498;11.960;2023-07-13T00:40:43;18.70;99.90
29729;DHT22;20055;51.498;11.960;2023-07-13T00:43:15;18.70;99.90
29729;DHT22;20055;51.498;11.960;2023-07-13T00:48:14;18.60;99.90
29729;DHT22;20055;51.498;11.960;2023-07-13T00:50:41;18.50;99.90
29729;DHT22;20055;51.498;11.960;2023-07-13T00:53:09;18.40;99.90
29729;DHT22;20055;51.498;11.960;2023-07-13T00:55:35;18.30;99.90
29729;DHT22;20055;51.498;11.960;2023-07-13T00:58:02;18.30;99.90
29729;DHT22;20055;51.498;11.960;2023-07-13T01:00:29;18.30;99.90
29729;DHT22;20055;51.498;11.960;2023-07-13T01:02:55;18.30;99.90
29729;DHT22;20055;51.498;11.960;2023-07-13T01:05:25;18.30;99.90
29729;DHT22;20055;51.498;11.960;2023-07-13T01:07:51;18.20;99.90
29729;DHT22;20055;51.498;11.960;2023-07-13T01:10:22;18.20;99.90
29729;DHT22;20055;51.498;11.960;2023-07-13T01:12:48;18.20;99.90
29729;DHT22;20055;51.498;11.960;2023-07-13T01:18:00;18.10;99.90
29729;DHT22;20055;51.498;11.960;2023-07-13T01:20:27;18.10;99.90
29729;DHT22;20055;51.498;11.960;2023-07-13T01:22:53;18.10;99.90
29729;DHT22;20055;51.498;11.960;2023-07-13T01:25:21;18.00;99.90
29729;DHT22;20055;51.498;11.960;2023-07-13T01:27:47;18.00;99.90
29729;DHT22;20055;51.498;11.960;2023-07-13T01:30:14;17.90;99.90
29729;DHT22;20055;51.498;11.960;2023-07-13T01:32:40;17.90;99.90
29729;DHT22;20055;51.498;11.960;2023-07-13T01:35:07;17.90;99.90
29729;DHT22;20055;51.498;11.960;2023-07-13T01:37:34;17.90;99.90
29729;DHT22;20055;51.498;11.960;2023-07-13T01:40:04;18.00;99.90
29729;DHT22;20055;51.498;11.960;2023-07-13T01:42:30;17.90;99.90
29729;DHT22;20055;51.498;11.960;2023-07-13T01:44:57;17.90;99.90
29729;DHT22;20055;51.498;11.960;2023-07-13T01:47:23;17.90;99.90
29729;DHT22;20055;51.498;11.960;2023-07-13T01:49:49;17.90;99.90
29729;DHT22;20055;51.498;11.960;2023-07-13T01:52:17;17.90;99.90
29729;DHT22;20055;51.498;11.960;2023-07-13T01:54:44;18.00;99.90
29729;DHT22;20055;51.498;11.960;2023-07-13T01:57:10;17.90;99.90
29729;DHT22;20055;51.498;11.960;2023-07-13T01:59:36;18.00;99.90
29729;DHT22;20055;51.498;11.960;2023-07-13T02:02:03;18.20;99.90
29729;DHT22;20055;51.498;11.960;2023-07-13T02:04:29;18.20;99.90
29729;DHT22;20055;51.498;11.960;2023-07-13T02:06:55;18.30;99.90
29729;DHT22;20055;51.498;11.960;2023-07-13T02:09:22;18.30;99.90
29729;DHT22;20055;51.498;11.960;2023-07-13T02:11:48;18.30;99.90
29729;DHT22;20055;51.498;11.960;2023-07-13T02:14:14;18.30;99.90
29729;DHT22;20055;51.498;11.960;2023-07-13T02:16:41;18.20;99.90
29729;DHT22;20055;51.498;11.960;2023-07-13T02:19:08;18.20;99.90
29729;DHT22;20055;51.498;11.960;2023-07-13T02:21:34;18.20;99.90
29729;DHT22;20055;51.498;11.960;2023-07-13T02:24:00;18.20;99.90
29729;DHT22;20055;51.498;11.960;2023-07-13T02:26:27;18.20;99.90
29729;DHT22;20055;51.498;11.960;2023-07-13T02:28:54;18.10;99.90
29729;DHT22;20055;51.498;11.960;2023-07-13T02:31:20;18.10;99.90
29729;DHT22;20055;51.498;11.960;2023-07-13T02:33:46;18.10;99.90
29729;DHT22;20055;51.498;11.960;2023-07-13T02:36:13;18.00;99.90
29729;DHT22;20055;51.498;11.960;2023-07-13T02:38:44;18.00;99.90
29729;DHT22;20055;51.498;11.960;2023-07-13T02:41:10;17.90;99.90
29729;DHT22;20055;51.498;11.960;2023-07-13T02:43:40;18.00;99.90
29729;DHT22;20055;51.498;11.960;2023-07-13T02:46:09;17.90;99.90
29729;DHT22;20055;51.498;11.960;2023-07-13T02:48:39;17.90;99.90
29729;DHT22;20055;51.498;11.960;2023-07-13T02:51:06;17.90;99.90
29729;DHT22;20055;51.498;11.960;2023-07-13T02:53:33;17.80;99.90
29729;DHT22;20055;51.498;11.960;2023-07-13T02:56:01;17.80;99.90
29729;DHT22;20055;51.498;11.960;2023-07-13T02:58:28;17.80;99.90
29729;DHT22;20055;51.498;11.960;2023-07-13T03:00:55;17.80;99.90
29729;DHT22;20055;51.498;11.960;2023-07-13T03:03:22;17.80;99.90
29729;DHT22;20055;51.498;11.960;2023-07-13T03:05:48;17.90;99.90
29729;DHT22;20055;51.498;11.960;2023-07-13T03:08:23;17.90;99.90
29729;DHT22;20055;51.498;11.960;2023-07-13T03:11:03;17.90;99.90
29729;DHT22;20055;51.498;11.960;2023-07-13T03:13:32;17.80;99.90
29729;DHT22;20055;51.498;11.960;2023-07-13T03:15:59;17.70;99.90
29729;DHT22;20055;51.498;11.960;2023-07-13T03:18:27;17.70;99.90
29729;DHT22;20055;51.498;11.960;2023-07-13T03:20:54;17.60;99.90
29729;DHT22;20055;51.498;11.960;2023-07-13T03:23:21;17.60;99.90
29729;DHT22;20055;51.498;11.960;2023-07-13T03:25:48;17.50;99.90
29729;DHT22;20055;51.498;11.960;2023-07-13T03:28:15;17.50;99.90
29729;DHT22;20055;51.498;11.960;2023-07-13T03:30:42;17.50;99.90
29729;DHT22;20055;51.498;11.960;2023-07-13T03:33:08;17.50;99.90
29729;DHT22;20055;51.498;11.960;2023-07-13T03:35:35;17.40;99.90
29729;DHT22;20055;51.498;11.960;2023-07-13T03:38:01;17.40;99.90
29729;DHT22;20055;51.498;11.960;2023-07-13T03:40:29;17.40;99.90
29729;DHT22;20055;51.498;11.960;2023-07-13T03:42:55;17.30;99.90
29729;DHT22;20055;51.498;11.960;2023-07-13T03:45:21;17.40;99.90
29729;DHT22;20055;51.498;11.960;2023-07-13T03:47:48;17.40;99.90
29729;DHT22;20055;51.498;11.960;2023-07-13T03:50:14;17.40;99.90
29729;DHT22;20055;51.498;11.960;2023-07-13T03:52:41;17.40;99.90
29729;DHT22;20055;51.498;11.960;2023-07-13T03:55:07;17.50;99.90
29729;DHT22;20055;51.498;11.960;2023-07-13T03:57:34;17.60;99.90
29729;DHT22;20055;51.498;11.960;2023-07-13T04:00:03;17.60;99.90
29729;DHT22;20055;51.498;11.960;2023-07-13T04:02:30;17.60;99.90
29729;DHT22;20055;51.498;11.960;2023-07-13T04:04:56;17.70;99.90
29729;DHT22;20055;51.498;11.960;2023-07-13T04:07:24;17.70;99.90
29729;DHT22;20055;51.498;11.960;2023-07-13T04:09:50;17.80;99.90
29729;DHT22;20055;51.498;11.960;2023-07-13T04:12:16;17.80;99.90
29729;DHT22;20055;51.498;11.960;2023-07-13T04:14:43;17.90;99.90
29729;DHT22;20055;51.498;11.960;2023-07-13T04:17:09;18.00;99.90
29729;DHT22;20055;51.498;11.960;2023-07-13T04:19:35;18.20;99.90
29729;DHT22;20055;51.498;11.960;2023-07-13T04:22:01;18.40;99.90
29729;DHT22;20055;51.498;11.960;2023-07-13T04:24:28;18.50;99.90
29729;DHT22;20055;51.498;11.960;2023-07-13T04:26:54;18.70;99.90
29729;DHT22;20055;51.498;11.960;2023-07-13T04:29:20;18.90;99.90
29729;DHT22;20055;51.498;11.960;2023-07-13T04:31:47;19.70;99.90
29729;DHT22;20055;51.498;11.960;2023-07-13T04:34:13;21.60;99.90
29729;DHT22;20055;51.498;11.960;2023-07-13T04:36:39;23.20;99.90
29729;DHT22;20055;51.498;11.960;2023-07-13T04:39:05;24.80;99.90
29729;DHT22;20055;51.498;11.960;2023-07-13T04:41:33;26.30;99.90
29729;DHT22;20055;51.498;11.960;2023-07-13T04:43:59;27.60;97.90
29729;DHT22;20055;51.498;11.960;2023-07-13T04:46:25;28.30;94.90
29729;DHT22;20055;51.498;11.960;2023-07-13T04:48:51;28.30;94.20
29729;DHT22;20055;51.498;11.960;2023-07-13T04:51:19;28.30;93.10
29729;DHT22;20055;51.498;11.960;2023-07-13T04:53:45;27.10;93.90
29729;DHT22;20055;51.498;11.960;2023-07-13T04:56:11;27.40;94.10
29729;DHT22;20055;51.498;11.960;2023-07-13T04:58:37;28.10;93.10
29729;DHT22;20055;51.498;11.960;2023-07-13T05:01:05;28.90;92.00
29729;DHT22;20055;51.498;11.960;2023-07-13T05:03:32;29.70;90.50
29729;DHT22;20055;51.498;11.960;2023-07-13T05:06:01;30.50;85.60
29729;DHT22;20055;51.498;11.960;2023-07-13T05:08:27;30.70;84.00
29729;DHT22;20055;51.498;11.960;2023-07-13T05:10:53;31.40;80.20
29729;DHT22;20055;51.498;11.960;2023-07-13T05:13:20;31.80;78.30
29729;DHT22;20055;51.498;11.960;2023-07-13T05:15:58;31.90;75.60
29729;DHT22;20055;51.498;11.960;2023-07-13T05:18:25;31.50;75.90
29729;DHT22;20055;51.498;11.960;2023-07-13T05:20:57;30.90;76.40
29729;DHT22;20055;51.498;11.960;2023-07-13T05:23:24;30.60;76.20
29729;DHT22;20055;51.498;11.960;2023-07-13T05:25:50;29.90;77.30
29729;DHT22;20055;51.498;11.960;2023-07-13T05:28:16;29.10;81.40
29729;DHT22;20055;51.498;11.960;2023-07-13T05:30:49;28.60;82.10
29729;DHT22;20055;51.498;11.960;2023-07-13T05:33:15;28.80;82.30
29729;DHT22;20055;51.498;11.960;2023-07-13T05:35:42;27.70;85.30
29729;DHT22;20055;51.498;11.960;2023-07-13T05:38:08;27.50;86.90
29729;DHT22;20055;51.498;11.960;2023-07-13T05:40:34;27.30;87.70
29729;DHT22;20055;51.498;11.960;2023-07-13T05:43:00;27.00;89.60
29729;DHT22;20055;51.498;11.960;2023-07-13T05:45:26;26.80;90.00
29729;DHT22;20055;51.498;11.960;2023-07-13T05:47:53;26.50;90.70
29729;DHT22;20055;51.498;11.960;2023-07-13T05:50:19;26.30;90.60
29729;DHT22;20055;51.498;11.960;2023-07-13T05:52:45;25.60;92.00
29729;DHT22;20055;51.498;11.960;2023-07-13T05:55:11;25.10;93.70
29729;DHT22;20055;51.498;11.960;2023-07-13T05:57:38;24.60;95.40
29729;DHT22;20055;51.498;11.960;2023-07-13T06:00:04;24.20;96.60
29729;DHT22;20055;51.498;11.960;2023-07-13T06:02:38;23.80;98.00
29729;DHT22;20055;51.498;11.960;2023-07-13T06:05:04;23.70;99.00
29729;DHT22;20055;51.498;11.960;2023-07-13T06:07:31;23.60;99.30
29729;DHT22;20055;51.498;11.960;2023-07-13T06:09:57;23.30;99.70
29729;DHT22;20055;51.498;11.960;2023-07-13T06:12:25;23.30;99.90
29729;DHT22;20055;51.498;11.960;2023-07-13T06:14:52;23.40;99.90
29729;DHT22;20055;51.498;11.960;2023-07-13T06:17:18;23.50;99.90
29729;DHT22;20055;51.498;11.960;2023-07-13T06:19:44;23.60;99.90
29729;DHT22;20055;51.498;11.960;2023-07-13T06:22:10;23.50;99.90
29729;DHT22;20055;51.498;11.960;2023-07-13T06:24:37;23.60;99.90
29729;DHT22;20055;51.498;11.960;2023-07-13T06:27:03;23.60;99.90
29729;DHT22;20055;51.498;11.960;2023-07-13T06:29:30;23.60;99.90
29729;DHT22;20055;51.498;11.960;2023-07-13T06:31:57;23.70;99.90
29729;DHT22;20055;51.498;11.960;2023-07-13T06:34:23;23.60;99.90
29729;DHT22;20055;51.498;11.960;2023-07-13T06:36:50;23.60;99.90
29729;DHT22;20055;51.498;11.960;2023-07-13T06:39:16;23.70;98.70
29729;DHT22;20055;51.498;11.960;2023-07-13T06:41:42;23.70;99.90
29729;DHT22;20055;51.498;11.960;2023-07-13T06:44:13;23.70;98.40
29729;DHT22;20055;51.498;11.960;2023-07-13T06:46:39;23.80;98.10
29729;DHT22;20055;51.498;11.960;2023-07-13T06:49:05;23.80;99.30
29729;DHT22;20055;51.498;11.960;2023-07-13T06:51:32;24.00;99.10
29729;DHT22;20055;51.498;11.960;2023-07-13T06:53:58;24.10;98.80
29729;DHT22;20055;51.498;11.960;2023-07-13T06:56:24;24.20;98.40
29729;DHT22;20055;51.498;11.960;2023-07-13T06:58:50;24.30;95.50
29729;DHT22;20055;51.498;11.960;2023-07-13T07:01:16;24.30;95.00
29729;DHT22;20055;51.498;11.960;2023-07-13T07:03:43;24.30;96.00
29729;DHT22;20055;51.498;11.960;2023-07-13T07:06:16;24.40;95.10
29729;DHT22;20055;51.498;11.960;2023-07-13T07:08:43;24.40;96.00
29729;DHT22;20055;51.498;11.960;2023-07-13T07:11:12;24.40;95.80
29729;DHT22;20055;51.498;11.960;2023-07-13T07:13:39;24.50;93.50
29729;DHT22;20055;51.498;11.960;2023-07-13T07:16:05;24.40;95.50
29729;DHT22;20055;51.498;11.960;2023-07-13T07:18:31;24.50;95.10
29729;DHT22;20055;51.498;11.960;2023-07-13T07:20:58;24.60;93.80
29729;DHT22;20055;51.498;11.960;2023-07-13T07:23:24;24.80;93.60
29729;DHT22;20055;51.498;11.960;2023-07-13T07:25:50;24.70;92.00
29729;DHT22;20055;51.498;11.960;2023-07-13T07:28:18;24.50;93.20
29729;DHT22;20055;51.498;11.960;2023-07-13T07:30:45;24.40;92.80
29729;DHT22;20055;51.498;11.960;2023-07-13T07:33:12;24.60;92.00
29729;DHT22;20055;51.498;11.960;2023-07-13T07:35:39;24.80;92.30
29729;DHT22;20055;51.498;11.960;2023-07-13T07:38:06;24.70;92.30
29729;DHT22;20055;51.498;11.960;2023-07-13T07:40:37;24.80;90.60
29729;DHT22;20055;51.498;11.960;2023-07-13T07:43:03;24.80;91.50
29729;DHT22;20055;51.498;11.960;2023-07-13T07:45:29;25.20;89.40
29729;DHT22;20055;51.498;11.960;2023-07-13T07:47:55;25.60;89.10
29729;DHT22;20055;51.498;11.960;2023-07-13T07:50:28;25.90;88.00
29729;DHT22;20055;51.498;11.960;2023-07-13T07:52:54;25.70;87.90
29729;DHT22;20055;51.498;11.960;2023-07-13T07:55:25;25.70;88.00
29729;DHT22;20055;51.498;11.960;2023-07-13T07:57:52;25.50;88.30
29729;DHT22;20055;51.498;11.960;2023-07-13T08:00:19;25.80;87.80
29729;DHT22;20055;51.498;11.960;2023-07-13T08:02:47;25.90;90.30
29729;DHT22;20055;51.498;11.960;2023-07-13T08:05:14;26.30;90.20
29729;DHT22;20055;51.498;11.960;2023-07-13T08:07:40;26.60;90.40
29729;DHT22;20055;51.498;11.960;2023-07-13T08:10:07;26.50;89.50
29729;DHT22;20055;51.498;11.960;2023-07-13T08:12:35;26.60;90.50
29729;DHT22;20055;51.498;11.960;2023-07-13T08:15:02;26.10;90.00
29729;DHT22;20055;51.498;11.960;2023-07-13T08:17:30;25.60;91.00
29729;DHT22;20055;51.498;11.960;2023-07-13T08:19:57;25.50;92.00
29729;DHT22;20055;51.498;11.960;2023-07-13T08:22:23;25.60;92.00
29729;DHT22;20055;51.498;11.960;2023-07-13T08:24:49;25.80;90.90
29729;DHT22;20055;51.498;11.960;2023-07-13T08:27:26;26.10;91.00
29729;DHT22;20055;51.498;11.960;2023-07-13T08:29:53;26.20;91.60
29729;DHT22;20055;51.498;11.960;2023-07-13T08:32:20;26.40;90.40
29729;DHT22;20055;51.498;11.960;2023-07-13T08:34:47;26.30;90.50
29729;DHT22;20055;51.498;11.960;2023-07-13T08:37:14;26.50;88.20
29729;DHT22;20055;51.498;11.960;2023-07-13T08:39:40;26.40;92.20
29729;DHT22;20055;51.498;11.960;2023-07-13T08:45:14;26.00;91.80
29729;DHT22;20055;51.498;11.960;2023-07-13T08:47:54;26.00;91.00
29729;DHT22;20055;51.498;11.960;2023-07-13T08:50:25;26.30;89.90
29729;DHT22;20055;51.498;11.960;2023-07-13T08:52:55;26.40;91.40
29729;DHT22;20055;51.498;11.960;2023-07-13T08:55:27;26.10;91.40
29729;DHT22;20055;51.498;11.960;2023-07-13T08:58:16;26.30;89.00
29729;DHT22;20055;51.498;11.960;2023-07-13T09:00:56;26.10;91.10
29729;DHT22;20055;51.498;11.960;2023-07-13T09:03:30;26.00;90.80
29729;DHT22;20055;51.498;11.960;2023-07-13T09:06:02;25.90;90.40
29729;DHT22;20055;51.498;11.960;2023-07-13T09:08:36;25.70;91.00
29729;DHT22;20055;51.498;11.960;2023-07-13T09:14:36;25.20;91.40
29729;DHT22;20055;51.498;11.960;2023-07-13T09:17:10;25.30;89.30
29729;DHT22;20055;51.498;11.960;2023-07-13T09:19:37;25.20;90.00
29729;DHT22;20055;51.498;11.960;2023-07-13T09:22:12;25.20;89.00
29729;DHT22;20055;51.498;11.960;2023-07-13T09:25:04;25.20;85.60
29729;DHT22;20055;51.498;11.960;2023-07-13T09:27:39;25.30;87.80
29729;DHT22;20055;51.498;11.960;2023-07-13T09:32:39;25.70;88.60
29729;DHT22;20055;51.498;11.960;2023-07-13T09:35:15;25.80;85.10
29729;DHT22;20055;51.498;11.960;2023-07-13T09:37:43;25.50;89.10
29729;DHT22;20055;51.498;11.960;2023-07-13T09:40:21;25.60;85.70
29729;DHT22;20055;51.498;11.960;2023-07-13T09:42:53;25.80;81.40
29729;DHT22;20055;51.498;11.960;2023-07-13T09:45:30;25.80;84.80
29729;DHT22;20055;51.498;11.960;2023-07-13T09:48:05;25.80;87.50
29729;DHT22;20055;51.498;11.960;2023-07-13T09:50:32;25.60;89.10
29729;DHT22;20055;51.498;11.960;2023-07-13T09:53:00;25.80;89.40
29729;DHT22;20055;51.498;11.960;2023-07-13T09:57:53;25.80;82.30
29729;DHT22;20055;51.498;11.960;2023-07-13T10:00:26;26.00;86.80
29729;DHT22;20055;51.498;11.960;2023-07-13T10:03:02;25.80;88.80
29729;DHT22;20055;51.498;11.960;2023-07-13T10:05:41;25.90;84.70
29729;DHT22;20055;51.498;11.960;2023-07-13T10:08:24;26.20;85.00
29729;DHT22;20055;51.498;11.960;2023-07-13T10:11:02;26.20;86.00
29729;DHT22;20055;51.498;11.960;2023-07-13T10:13:42;26.20;84.70
29729;DHT22;20055;51.498;11.960;2023-07-13T10:16:09;25.60;87.50
29729;DHT22;20055;51.498;11.960;2023-07-13T10:18:57;25.40;88.70
29729;DHT22;20055;51.498;11.960;2023-07-13T10:21:33;25.30;88.50
29729;DHT22;20055;51.498;11.960;2023-07-13T10:24:20;25.20;86.10
29729;DHT22;20055;51.498;11.960;2023-07-13T10:27:36;25.60;88.20
29729;DHT22;20055;51.498;11.960;2023-07-13T10:29:45;25.80;87.70
29729;DHT22;20055;51.498;11.960;2023-07-13T10:32:13;25.80;82.20
29729;DHT22;20055;51.498;11.960;2023-07-13T10:34:43;25.40;84.30
29729;DHT22;20055;51.498;11.960;2023-07-13T10:37:21;25.50;83.10
29729;DHT22;20055;51.498;11.960;2023-07-13T10:39:50;26.20;81.50
29729;DHT22;20055;51.498;11.960;2023-07-13T10:42:29;26.60;79.80
29729;DHT22;20055;51.498;11.960;2023-07-13T10:44:56;26.60;79.70
29729;DHT22;20055;51.498;11.960;2023-07-13T10:47:22;26.70;79.10
29729;DHT22;20055;51.498;11.960;2023-07-13T10:49:54;26.30;78.60
29729;DHT22;20055;51.498;11.960;2023-07-13T10:52:44;26.10;77.00
29729;DHT22;20055;51.498;11.960;2023-07-13T10:55:35;26.10;74.60
29729;DHT22;20055;51.498;11.960;2023-07-13T10:58:12;25.80;72.70
29729;DHT22;20055;51.498;11.960;2023-07-13T11:01:15;25.30;75.60
29729;DHT22;20055;51.498;11.960;2023-07-13T11:03:55;25.10;78.30
29729;DHT22;20055;51.498;11.960;2023-07-13T11:06:31;25.60;76.90
29729;DHT22;20055;51.498;11.960;2023-07-13T11:09:33;25.90;74.80
29729;DHT22;20055;51.498;11.960;2023-07-13T11:12:02;26.00;74.40
29729;DHT22;20055;51.498;11.960;2023-07-13T11:14:41;26.40;73.80
29729;DHT22;20055;51.498;11.960;2023-07-13T11:22:47;25.60;68.80
29729;DHT22;20055;51.498;11.960;2023-07-13T11:25:31;26.20;69.00
29729;DHT22;20055;51.498;11.960;2023-07-13T11:30:43;27.00;63.40
29729;DHT22;20055;51.498;11.960;2023-07-13T11:36:02;27.20;64.40
29729;DHT22;20055;51.498;11.960;2023-07-13T11:41:27;26.60;62.40
29729;DHT22;20055;51.498;11.960;2023-07-13T11:44:02;26.10;65.00
29729;DHT22;20055;51.498;11.960;2023-07-13T11:46:30;26.30;66.10
29729;DHT22;20055;51.498;11.960;2023-07-13T11:48:57;26.00;67.10
29729;DHT22;20055;51.498;11.960;2023-07-13T11:51:29;26.30;65.70
29729;DHT22;20055;51.498;11.960;2023-07-13T11:54:01;26.50;65.70
29729;DHT22;20055;51.498;11.960;2023-07-13T11:56:28;26.80;65.50
29729;DHT22;20055;51.498;11.960;2023-07-13T11:58:57;27.10;63.40
29729;DHT22;20055;51.498;11.960;2023-07-13T12:01:27;27.30;62.80
29729;DHT22;20055;51.498;11.960;2023-07-13T12:04:02;27.40;62.00
29729;DHT22;20055;51.498;11.960;2023-07-13T12:06:34;27.40;62.30
29729;DHT22;20055;51.498;11.960;2023-07-13T12:09:12;27.30;62.20
29729;DHT22;20055;51.498;11.960;2023-07-13T12:11:43;27.20;61.00
29729;DHT22;20055;51.498;11.960;2023-07-13T12:14:15;26.90;61.70
29729;DHT22;20055;51.498;11.960;2023-07-13T12:16:43;26.40;62.50
29729;DHT22;20055;51.498;11.960;2023-07-13T12:19:22;26.20;64.00
29729;DHT22;20055;51.498;11.960;2023-07-13T12:21:50;25.90;64.80
29729;DHT22;20055;51.498;11.960;2023-07-13T12:24:18;25.80;65.80
29729;DHT22;20055;51.498;11.960;2023-07-13T12:26:51;26.10;65.40
29729;DHT22;20055;51.498;11.960;2023-07-13T12:29:18;25.80;66.00
29729;DHT22;20055;51.498;11.960;2023-07-13T12:31:46;25.70;66.60
29729;DHT22;20055;51.498;11.960;2023-07-13T12:34:16;26.00;66.00
29729;DHT22;20055;51.498;11.960;2023-07-13T12:36:53;26.10;65.40
29729;DHT22;20055;51.498;11.960;2023-07-13T12:39:23;26.30;65.60
29729;DHT22;20055;51.498;11.960;2023-07-13T12:41:51;26.20;66.10
29729;DHT22;20055;51.498;11.960;2023-07-13T12:47:06;25.70;65.70
29729;DHT22;20055;51.498;11.960;2023-07-13T12:49:43;25.70;67.10
29729;DHT22;20055;51.498;11.960;2023-07-13T12:52:37;26.00;65.50
29729;DHT22;20055;51.498;11.960;2023-07-13T12:55:06;26.60;64.50
29729;DHT22;20055;51.498;11.960;2023-07-13T12:57:41;27.00;63.10
29729;DHT22;20055;51.498;11.960;2023-07-13T13:00:19;27.10;62.10
29729;DHT22;20055;51.498;11.960;2023-07-13T13:02:50;27.10;61.90
29729;DHT22;20055;51.498;11.960;2023-07-13T13:05:17;27.30;60.80
29729;DHT22;20055;51.498;11.960;2023-07-13T13:07:43;27.40;60.80
29729;DHT22;20055;51.498;11.960;2023-07-13T13:10:13;27.20;60.60
29729;DHT22;20055;51.498;11.960;2023-07-13T13:12:40;27.00;61.00
29729;DHT22;20055;51.498;11.960;2023-07-13T13:15:09;26.60;60.80
29729;DHT22;20055;51.498;11.960;2023-07-13T13:17:37;26.20;60.90
29729;DHT22;20055;51.498;11.960;2023-07-13T13:20:19;26.00;61.30
29729;DHT22;20055;51.498;11.960;2023-07-13T13:22:45;26.30;61.50
29729;DHT22;20055;51.498;11.960;2023-07-13T13:25:13;26.60;60.90
29729;DHT22;20055;51.498;11.960;2023-07-13T13:27:44;27.10;60.10
29729;DHT22;20055;51.498;11.960;2023-07-13T13:30:11;26.80;58.70
29729;DHT22;20055;51.498;11.960;2023-07-13T13:32:40;27.00;58.90
29729;DHT22;20055;51.498;11.960;2023-07-13T13:35:13;27.30;57.20
29729;DHT22;20055;51.498;11.960;2023-07-13T13:37:40;27.50;56.90
29729;DHT22;20055;51.498;11.960;2023-07-13T13:40:21;27.40;57.60
29729;DHT22;20055;51.498;11.960;2023-07-13T13:42:49;27.10;58.10
29729;DHT22;20055;51.498;11.960;2023-07-13T13:45:15;26.70;57.80
29729;DHT22;20055;51.498;11.960;2023-07-13T13:47:44;26.40;58.30
29729;DHT22;20055;51.498;11.960;2023-07-13T13:50:18;26.30;58.90
29729;DHT22;20055;51.498;11.960;2023-07-13T13:52:45;26.60;59.10
29729;DHT22;20055;51.498;11.960;2023-07-13T13:55:16;26.40;59.30
29729;DHT22;20055;51.498;11.960;2023-07-13T13:57:48;26.30;60.80
29729;DHT22;20055;51.498;11.960;2023-07-13T14:00:16;26.20;60.50
29729;DHT22;20055;51.498;11.960;2023-07-13T14:02:47;26.30;61.20
29729;DHT22;20055;51.498;11.960;2023-07-13T14:05:20;26.30;60.80
29729;DHT22;20055;51.498;11.960;2023-07-13T14:07:47;26.40;61.30
29729;DHT22;20055;51.498;11.960;2023-07-13T14:10:17;26.20;61.30
29729;DHT22;20055;51.498;11.960;2023-07-13T14:12:46;25.90;62.80
29729;DHT22;20055;51.498;11.960;2023-07-13T14:15:31;26.00;62.70
29729;DHT22;20055;51.498;11.960;2023-07-13T14:17:57;26.50;61.80
29729;DHT22;20055;51.498;11.960;2023-07-13T14:20:25;26.60;61.20
29729;DHT22;20055;51.498;11.960;2023-07-13T14:22:52;26.80;60.90
29729;DHT22;20055;51.498;11.960;2023-07-13T14:25:19;27.10;61.40
29729;DHT22;20055;51.498;11.960;2023-07-13T14:27:49;27.10;60.60
29729;DHT22;20055;51.498;11.960;2023-07-13T14:30:20;27.30;59.60
29729;DHT22;20055;51.498;11.960;2023-07-13T14:32:47;27.20;59.80
29729;DHT22;20055;51.498;11.960;2023-07-13T14:35:16;27.00;61.20
29729;DHT22;20055;51.498;11.960;2023-07-13T14:37:43;27.10;60.60
29729;DHT22;20055;51.498;11.960;2023-07-13T14:40:26;26.80;61.20
29729;DHT22;20055;51.498;11.960;2023-07-13T14:42:53;26.90;61.00
29729;DHT22;20055;51.498;11.960;2023-07-13T14:45:20;27.20;60.60
29729;DHT22;20055;51.498;11.960;2023-07-13T14:47:47;27.40;60.80
29729;DHT22;20055;51.498;11.960;2023-07-13T14:50:16;27.50;60.80
29729;DHT22;20055;51.498;11.960;2023-07-13T14:52:44;27.30;60.50
29729;DHT22;20055;51.498;11.960;2023-07-13T14:55:13;27.30;60.80
29729;DHT22;20055;51.498;11.960;2023-07-13T14:57:39;27.00;61.50
29729;DHT22;20055;51.498;11.960;2023-07-13T15:00:16;26.90;60.50
29729;DHT22;20055;51.498;11.960;2023-07-13T15:02:50;26.40;60.90
29729;DHT22;20055;51.498;11.960;2023-07-13T15:05:23;26.30;61.80
29729;DHT22;20055;51.498;11.960;2023-07-13T15:07:56;26.70;61.50
29729;DHT22;20055;51.498;11.960;2023-07-13T15:10:25;27.20;59.90
29729;DHT22;20055;51.498;11.960;2023-07-13T15:12:52;27.50;59.00
29729;DHT22;20055;51.498;11.960;2023-07-13T15:15:19;27.40;58.70
29729;DHT22;20055;51.498;11.960;2023-07-13T15:17:47;27.20;59.20
29729;DHT22;20055;51.498;11.960;2023-07-13T15:20:29;26.90;59.40
29729;DHT22;20055;51.498;11.960;2023-07-13T15:22:56;26.40;60.00
29729;DHT22;20055;51.498;11.960;2023-07-13T15:25:25;26.30;60.70
29729;DHT22;20055;51.498;11.960;2023-07-13T15:27:55;26.40;61.50
29729;DHT22;20055;51.498;11.960;2023-07-13T15:30:22;26.50;60.40
29729;DHT22;20055;51.498;11.960;2023-07-13T15:32:50;26.50;60.40
29729;DHT22;20055;51.498;11.960;2023-07-13T15:35:18;26.30;61.50
29729;DHT22;20055;51.498;11.960;2023-07-13T15:37:46;26.10;62.20
29729;DHT22;20055;51.498;11.960;2023-07-13T15:40:13;25.70;63.00
29729;DHT22;20055;51.498;11.960;2023-07-13T15:42:44;25.60;64.00
29729;DHT22;20055;51.498;11.960;2023-07-13T15:45:22;25.60;64.00
29729;DHT22;20055;51.498;11.960;2023-07-13T15:47:49;25.90;63.80
29729;DHT22;20055;51.498;11.960;2023-07-13T15:50:19;25.90;63.90
29729;DHT22;20055;51.498;11.960;2023-07-13T15:52:50;25.60;64.50
29729;DHT22;20055;51.498;11.960;2023-07-13T15:55:16;25.80;64.40
29729;DHT22;20055;51.498;11.960;2023-07-13T15:57:50;25.90;64.30
29729;DHT22;20055;51.498;11.960;2023-07-13T16:00:23;25.80;65.10
29729;DHT22;20055;51.498;11.960;2023-07-13T16:02:50;25.60;65.70